Time;durP1;ratioP1;P1;durP2;ratioP2;P2;SDS_P1;SDS_P2;PMS_P1;PMS_P2;Temp;Humidity;BMP_temperature;BMP_pressure;BME280_temperature;BME280_humidity;BME280_pressure;Samples;Min_cycle;Max_cycle;Signal;HPM_P1;HPM_P2
2021/06/03 00:00:37;;;;;;;16.17;9.90;;;18.90;90.30;;;;;;5034216;28;20033;-73
2021/06/03 00:03:03;;;;;;;12.63;10.05;;;18.90;90.40;;;;;;5035204;28;20436;-73
2021/06/03 00:05:37;;;;;;;13.90;9.52;;;18.90;90.50;;;;;;5033345;28;20041;-73
2021/06/03 00:08:03;;;;;;;11.65;9.75;;;18.80;90.60;;;;;;5034499;28;20552;-73
2021/06/03 00:10:33;;;;;;;13.57;10.52;;;18.80;90.60;;;;;;5033985;28;20033;-73
2021/06/03 00:13:00;;;;;;;18.30;10.35;;;18.80;90.60;;;;;;5034568;28;20048;-73
2021/06/03 00:15:26;;;;;;;13.95;10.35;;;18.70;90.70;;;;;;5035061;28;20518;-73
2021/06/03 00:17:52;;;;;;;16.80;10.77;;;18.60;90.80;;;;;;5033066;28;20120;-73
2021/06/03 00:20:21;;;;;;;18.10;10.35;;;18.70;90.80;;;;;;5033889;28;20112;-73
2021/06/03 00:22:48;;;;;;;16.48;10.48;;;18.70;90.80;;;;;;5034143;28;20051;-73
2021/06/03 00:25:14;;;;;;;14.25;10.75;;;18.60;90.90;;;;;;5034589;28;20052;-73
2021/06/03 00:27:40;;;;;;;15.68;10.90;;;18.60;90.90;;;;;;5034140;28;20445;-73
2021/06/03 00:30:07;;;;;;;19.58;11.27;;;18.60;90.90;;;;;;5033752;28;20100;-73
2021/06/03 00:32:33;;;;;;;14.73;11.02;;;18.60;90.90;;;;;;5033963;28;20150;-73
2021/06/03 00:34:59;;;;;;;14.00;11.35;;;18.60;90.90;;;;;;5033972;28;20070;-73
2021/06/03 00:37:25;;;;;;;16.60;11.73;;;18.60;90.90;;;;;;5033885;28;20072;-73
2021/06/03 00:39:50;;;;;;;18.88;11.48;;;18.60;90.80;;;;;;5033518;28;20033;-73
2021/06/03 00:42:17;;;;;;;13.63;10.98;;;18.60;90.80;;;;;;5033876;28;20056;-73
2021/06/03 00:44:43;;;;;;;17.40;12.23;;;18.50;90.90;;;;;;5033757;28;20034;-73
2021/06/03 00:47:10;;;;;;;14.00;10.73;;;18.50;90.90;;;;;;5034450;28;20038;-73
2021/06/03 00:49:36;;;;;;;13.00;10.68;;;18.50;90.80;;;;;;5033589;28;20481;-73
2021/06/03 00:52:03;;;;;;;14.25;10.43;;;18.50;90.80;;;;;;5033499;28;20045;-73
2021/06/03 00:54:28;;;;;;;15.02;10.18;;;18.50;90.90;;;;;;5033769;28;20037;-73
2021/06/03 00:56:54;;;;;;;13.98;10.88;;;18.50;90.90;;;;;;5034376;28;20077;-73
2021/06/03 00:59:20;;;;;;;15.30;10.55;;;18.50;90.80;;;;;;5032804;28;20063;-73
2021/06/03 01:01:45;;;;;;;12.90;10.05;;;18.50;90.90;;;;;;5033434;28;20041;-73
2021/06/03 01:04:16;;;;;;;13.57;9.50;;;18.50;90.90;;;;;;5033773;28;20038;-73
2021/06/03 01:06:43;;;;;;;13.10;10.00;;;18.50;90.90;;;;;;5034109;28;20045;-73
2021/06/03 01:09:21;;;;;;;12.90;9.50;;;18.40;90.90;;;;;;5033202;28;20041;-73
2021/06/03 01:11:57;;;;;;;10.80;9.52;;;18.40;90.90;;;;;;5033941;28;20045;-73
2021/06/03 01:14:27;;;;;;;12.07;9.10;;;18.40;90.90;;;;;;5033840;28;20151;-73
2021/06/03 01:16:57;;;;;;;12.95;9.80;;;18.40;91.00;;;;;;5033662;28;20080;-73
2021/06/03 01:19:35;;;;;;;14.23;9.77;;;18.40;91.10;;;;;;5033135;28;20076;-73
2021/06/03 01:22:07;;;;;;;11.57;9.30;;;18.30;91.10;;;;;;5034031;28;20124;-73
2021/06/03 01:24:36;;;;;;;13.15;10.10;;;18.30;91.20;;;;;;5032564;28;20090;-73
2021/06/03 01:27:17;;;;;;;11.18;8.75;;;18.30;91.20;;;;;;5033259;28;20045;-73
2021/06/03 01:30:08;;;;;;;14.85;10.30;;;18.30;91.30;;;;;;5033263;28;20065;-73
2021/06/03 01:32:36;;;;;;;16.27;9.30;;;18.30;91.30;;;;;;5034152;28;20073;-73
2021/06/03 01:35:05;;;;;;;10.88;9.40;;;18.20;91.40;;;;;;5033246;28;20039;-73
2021/06/03 01:37:31;;;;;;;14.68;9.52;;;18.20;91.40;;;;;;5033510;28;20045;-73
2021/06/03 01:39:58;;;;;;;12.75;9.77;;;18.20;91.50;;;;;;5032870;28;20481;-73
2021/06/03 01:42:25;;;;;;;13.93;9.75;;;18.20;91.50;;;;;;5033191;28;20128;-73
2021/06/03 01:44:51;;;;;;;11.68;9.38;;;18.20;91.50;;;;;;5033611;28;20037;-73
2021/06/03 01:47:17;;;;;;;12.70;10.30;;;18.20;91.50;;;;;;5033367;28;20037;-73
2021/06/03 01:49:43;;;;;;;13.48;10.40;;;18.20;91.50;;;;;;5032648;28;20108;-73
2021/06/03 01:52:09;;;;;;;11.93;9.48;;;18.10;91.50;;;;;;5033078;28;20060;-73
2021/06/03 01:54:35;;;;;;;11.27;10.10;;;18.10;91.50;;;;;;5033543;28;20084;-73
2021/06/03 01:57:04;;;;;;;12.52;9.30;;;18.10;91.60;;;;;;5033006;28;20072;-73
2021/06/03 01:59:33;;;;;;;12.38;10.00;;;18.10;91.60;;;;;;5032655;28;20087;-73
2021/06/03 02:01:58;;;;;;;12.32;9.65;;;18.00;91.70;;;;;;5032907;28;20076;-73
2021/06/03 02:04:24;;;;;;;10.18;9.02;;;18.00;91.80;;;;;;5033243;28;20039;-73
2021/06/03 02:06:52;;;;;;;13.85;9.95;;;17.90;91.90;;;;;;5033028;28;20172;-73
2021/06/03 02:09:18;;;;;;;15.73;10.68;;;17.90;91.80;;;;;;5032646;28;20041;-73
2021/06/03 02:11:48;;;;;;;13.82;9.55;;;17.90;91.90;;;;;;5036455;28;20508;-73
2021/06/03 02:14:26;;;;;;;13.48;9.70;;;17.90;92.00;;;;;;5037076;28;20046;-73
2021/06/03 02:16:59;;;;;;;18.25;9.45;;;17.80;92.00;;;;;;5037186;28;20095;-73
2021/06/03 02:19:31;;;;;;;13.20;9.68;;;17.80;92.00;;;;;;5036612;28;20118;-73
2021/06/03 02:21:58;;;;;;;13.27;9.75;;;17.80;92.00;;;;;;5037218;28;20041;-73
2021/06/03 02:24:26;;;;;;;12.68;9.70;;;17.80;92.30;;;;;;5035333;28;20037;-73
2021/06/03 02:26:52;;;;;;;9.88;8.88;;;17.80;92.00;;;;;;5036691;28;20034;-74
2021/06/03 02:29:18;;;;;;;11.45;9.05;;;17.70;91.90;;;;;;5036348;28;20061;-73
2021/06/03 02:31:46;;;;;;;11.60;9.68;;;17.70;92.00;;;;;;5036376;28;20040;-73
2021/06/03 02:34:12;;;;;;;9.90;8.43;;;17.70;92.00;;;;;;5036543;28;20037;-73
2021/06/03 02:36:38;;;;;;;11.88;9.75;;;17.60;92.00;;;;;;5036388;28;20072;-73
2021/06/03 02:39:06;;;;;;;10.77;9.45;;;17.50;91.90;;;;;;5035946;28;20037;-73
2021/06/03 02:41:33;;;;;;;10.95;9.35;;;17.50;91.80;;;;;;5036323;28;20048;-73
2021/06/03 02:44:00;;;;;;;10.60;8.57;;;17.50;91.70;;;;;;5036314;28;20041;-73
2021/06/03 02:46:26;;;;;;;11.43;7.88;;;17.50;91.60;;;;;;5036230;28;20063;-73
2021/06/03 02:48:51;;;;;;;13.25;9.23;;;17.50;91.60;;;;;;5035618;28;20041;-73
2021/06/03 02:51:18;;;;;;;9.63;8.63;;;17.50;91.50;;;;;;5034573;28;20038;-73
2021/06/03 02:53:46;;;;;;;9.95;8.30;;;17.50;91.50;;;;;;5036117;28;20033;-73
2021/06/03 02:56:15;;;;;;;11.23;8.63;;;17.50;91.60;;;;;;5036048;28;20068;-73
2021/06/03 02:58:42;;;;;;;12.63;8.23;;;17.40;91.50;;;;;;5035502;28;20198;-73
2021/06/03 03:01:08;;;;;;;13.85;8.52;;;17.40;91.50;;;;;;5035627;28;20116;-73
2021/06/03 03:03:33;;;;;;;9.85;8.27;;;17.40;91.60;;;;;;5035781;28;20482;-73
2021/06/03 03:05:59;;;;;;;9.93;8.20;;;17.30;91.60;;;;;;5036297;28;20041;-73
2021/06/03 03:08:26;;;;;;;13.18;8.85;;;17.30;91.60;;;;;;5035557;28;20041;-73
2021/06/03 03:10:54;;;;;;;11.35;9.00;;;17.30;91.70;;;;;;5035532;28;20034;-73
2021/06/03 03:13:20;;;;;;;12.48;8.00;;;17.30;91.70;;;;;;5035696;28;20073;-73
2021/06/03 03:15:46;;;;;;;10.57;8.40;;;17.20;91.70;;;;;;5035787;28;20085;-73
2021/06/03 03:18:13;;;;;;;10.38;8.30;;;17.20;91.80;;;;;;5035409;28;20052;-73
2021/06/03 03:20:39;;;;;;;14.30;9.20;;;17.20;91.80;;;;;;5034554;28;20037;-73
2021/06/03 03:23:08;;;;;;;12.75;9.10;;;17.20;91.90;;;;;;5035321;28;20042;-73
2021/06/03 03:25:34;;;;;;;9.80;8.30;;;17.10;92.00;;;;;;5035253;28;20064;-73
2021/06/03 03:28:01;;;;;;;10.15;9.02;;;17.00;92.00;;;;;;5035376;28;20492;-73
2021/06/03 03:30:28;;;;;;;9.75;8.75;;;17.00;92.00;;;;;;5034931;28;20120;-73
2021/06/03 03:32:55;;;;;;;11.38;8.45;;;17.00;92.10;;;;;;5035525;28;20038;-73
2021/06/03 03:35:20;;;;;;;11.90;8.80;;;16.90;92.20;;;;;;5035128;28;20048;-73
2021/06/03 03:37:47;;;;;;;12.75;8.95;;;16.90;92.30;;;;;;5035652;28;20385;-73
2021/06/03 03:40:17;;;;;;;9.65;8.15;;;16.90;92.30;;;;;;5034722;28;20041;-73
2021/06/03 03:42:43;;;;;;;12.88;9.15;;;16.90;92.40;;;;;;5035040;28;20460;-73
2021/06/03 03:45:12;;;;;;;9.63;8.63;;;16.90;92.50;;;;;;5035149;28;20143;-73
2021/06/03 03:47:38;;;;;;;10.95;8.57;;;16.90;92.50;;;;;;5035403;28;20112;-73
2021/06/03 03:50:09;;;;;;;11.68;9.15;;;16.90;92.80;;;;;;5034616;28;20136;-73
2021/06/03 03:52:35;;;;;;;9.90;8.88;;;16.90;92.50;;;;;;5034975;28;20037;-73
2021/06/03 03:55:01;;;;;;;10.02;9.02;;;16.90;92.40;;;;;;5034814;28;20041;-73
2021/06/03 03:57:28;;;;;;;11.43;8.65;;;17.00;92.40;;;;;;5033924;28;20037;-73
2021/06/03 03:59:54;;;;;;;12.85;9.27;;;17.10;92.50;;;;;;5033345;28;20033;-73
2021/06/03 04:02:19;;;;;;;10.05;8.63;;;17.10;92.50;;;;;;5035235;28;20068;-73
2021/06/03 04:04:45;;;;;;;11.48;9.07;;;17.10;92.50;;;;;;5034736;28;20397;-73
2021/06/03 04:07:13;;;;;;;11.27;9.57;;;17.10;92.60;;;;;;5034512;28;20045;-73
2021/06/03 04:09:38;;;;;;;10.70;9.07;;;17.10;92.50;;;;;;5034374;28;20458;-73
2021/06/03 04:12:05;;;;;;;9.48;8.25;;;17.10;92.50;;;;;;5035152;28;20033;-73
2021/06/03 04:14:31;;;;;;;13.32;9.23;;;17.20;92.40;;;;;;5033658;28;20048;-73
2021/06/03 04:16:56;;;;;;;11.15;9.63;;;17.20;92.50;;;;;;5034281;28;20033;-73
2021/06/03 04:19:23;;;;;;;10.63;8.40;;;17.20;92.40;;;;;;5034319;28;20049;-73
2021/06/03 04:21:50;;;;;;;11.07;8.88;;;17.30;92.40;;;;;;5034181;28;20121;-73
2021/06/03 04:24:16;;;;;;;14.32;9.27;;;17.30;92.60;;;;;;5034419;28;20078;-73
2021/06/03 04:26:42;;;;;;;10.10;9.10;;;17.40;92.60;;;;;;5034087;28;20041;-73
2021/06/03 04:29:08;;;;;;;11.13;9.20;;;17.30;92.60;;;;;;5033963;28;20033;-73
2021/06/03 04:31:34;;;;;;;11.15;8.95;;;17.50;92.60;;;;;;5034072;28;20076;-73
2021/06/03 04:34:00;;;;;;;10.05;8.60;;;17.50;92.60;;;;;;5033289;28;20069;-73
2021/06/03 04:36:26;;;;;;;10.68;9.57;;;17.50;92.50;;;;;;5034100;28;20116;-73
2021/06/03 04:38:52;;;;;;;11.88;8.75;;;17.50;92.90;;;;;;5032553;28;20041;-73
2021/06/03 04:41:18;;;;;;;12.52;9.43;;;17.60;92.90;;;;;;5034037;28;20103;-73
2021/06/03 04:43:44;;;;;;;12.27;9.10;;;17.60;92.80;;;;;;5034489;28;20037;-73
2021/06/03 04:46:12;;;;;;;9.18;8.30;;;17.60;92.70;;;;;;5034167;28;20050;-73
2021/06/03 04:48:38;;;;;;;10.55;8.88;;;17.60;92.70;;;;;;5034074;28;20068;-73
2021/06/03 04:51:05;;;;;;;11.25;9.43;;;17.70;92.70;;;;;;5033681;28;20069;-73
2021/06/03 04:53:31;;;;;;;14.57;9.30;;;17.70;92.70;;;;;;5033629;28;20041;-73
2021/06/03 04:55:57;;;;;;;10.48;9.45;;;17.70;92.70;;;;;;5033549;28;20051;-73
2021/06/03 04:58:24;;;;;;;12.35;9.90;;;17.70;92.70;;;;;;5033667;28;20553;-74
2021/06/03 05:00:49;;;;;;;9.57;8.57;;;17.70;92.60;;;;;;5033905;28;20040;-73
2021/06/03 05:03:15;;;;;;;10.60;9.15;;;17.80;92.60;;;;;;5033566;28;20041;-73
2021/06/03 05:05:41;;;;;;;13.38;9.50;;;17.80;92.70;;;;;;5032411;28;20037;-73
2021/06/03 05:08:07;;;;;;;12.25;8.48;;;17.90;92.80;;;;;;5033478;28;20083;-73
2021/06/03 05:10:34;;;;;;;10.63;8.77;;;18.00;92.70;;;;;;5033202;28;20037;-73
2021/06/03 05:13:01;;;;;;;12.18;7.88;;;18.00;92.70;;;;;;5033759;28;20042;-73
2021/06/03 05:15:27;;;;;;;12.68;9.30;;;18.00;92.60;;;;;;5033309;28;20049;-73
2021/06/03 05:17:54;;;;;;;11.60;8.65;;;18.10;92.70;;;;;;5033409;28;20044;-73
2021/06/03 05:20:22;;;;;;;11.93;7.90;;;18.10;92.80;;;;;;5033149;28;20033;-73
2021/06/03 05:22:50;;;;;;;15.60;9.00;;;18.10;92.80;;;;;;5032270;28;20489;-73
2021/06/03 05:25:18;;;;;;;10.38;8.43;;;18.20;92.70;;;;;;5033333;28;20037;-73
2021/06/03 05:27:44;;;;;;;10.75;9.05;;;18.30;92.60;;;;;;5033857;28;20034;-73
2021/06/03 05:30:11;;;;;;;13.38;9.73;;;18.30;92.70;;;;;;5032940;28;20121;-73
2021/06/03 05:32:38;;;;;;;12.98;9.20;;;18.30;92.70;;;;;;5033287;28;20069;-73
2021/06/03 05:35:06;;;;;;;9.88;8.70;;;18.40;92.80;;;;;;5032026;28;20045;-73
2021/06/03 05:37:32;;;;;;;11.73;9.35;;;18.50;92.70;;;;;;5033131;28;20124;-73
2021/06/03 05:39:58;;;;;;;13.23;9.27;;;18.50;92.60;;;;;;5033192;28;20109;-73
2021/06/03 05:42:24;;;;;;;13.48;9.80;;;18.60;92.50;;;;;;5033258;28;20049;-73
2021/06/03 05:44:50;;;;;;;15.85;9.45;;;18.60;92.50;;;;;;5035595;28;20035;-73
2021/06/03 05:47:16;;;;;;;16.58;9.27;;;18.70;92.40;;;;;;5037253;28;20065;-73
2021/06/03 05:49:42;;;;;;;11.25;8.52;;;18.80;92.30;;;;;;5036611;28;20421;-74
2021/06/03 05:52:08;;;;;;;10.98;8.70;;;18.80;92.20;;;;;;5036903;28;20044;-74
2021/06/03 05:54:34;;;;;;;11.48;9.07;;;19.00;92.10;;;;;;5037440;28;20125;-73
2021/06/03 05:57:00;;;;;;;12.65;8.15;;;19.20;91.80;;;;;;5037854;28;20063;-73
2021/06/03 05:59:27;;;;;;;12.55;8.63;;;19.30;91.70;;;;;;5036954;28;20041;-73
2021/06/03 06:01:59;;;;;;;12.25;7.97;;;19.50;91.60;;;;;;5036795;28;20120;-73
2021/06/03 06:06:51;;;;;;;8.32;7.47;;;19.90;91.50;;;;;;5037255;28;20041;-73
2021/06/03 06:09:17;;;;;;;8.90;7.95;;;20.00;91.10;;;;;;5036642;28;20045;-73
2021/06/03 06:11:44;;;;;;;9.85;7.25;;;20.00;91.00;;;;;;5036537;28;20493;-73
2021/06/03 06:14:11;;;;;;;8.50;7.50;;;20.10;90.80;;;;;;5037375;28;20124;-74
2021/06/03 06:16:37;;;;;;;9.55;7.78;;;20.10;90.80;;;;;;5036596;28;20041;-73
2021/06/03 06:19:07;;;;;;;11.13;7.15;;;20.30;90.70;;;;;;5036790;28;20049;-74
2021/06/03 06:21:50;;;;;;;7.95;7.13;;;20.40;90.50;;;;;;5037195;28;20044;-73
2021/06/03 06:24:16;;;;;;;11.38;7.40;;;20.50;90.30;;;;;;5036531;28;20049;-73
2021/06/03 06:26:44;;;;;;;8.45;6.22;;;20.70;90.40;;;;;;5036833;28;20045;-73
2021/06/03 06:29:10;;;;;;;7.32;6.03;;;21.30;90.00;;;;;;5035965;28;20499;-73
2021/06/03 06:31:36;;;;;;;11.20;6.05;;;21.60;87.70;;;;;;5036176;28;20374;-73
2021/06/03 06:34:02;;;;;;;11.63;6.70;;;22.10;85.80;;;;;;5036272;28;20215;-73
2021/06/03 06:36:28;;;;;;;8.52;6.70;;;22.20;84.70;;;;;;5036744;28;20476;-74
2021/06/03 06:38:54;;;;;;;7.93;6.63;;;22.30;84.20;;;;;;5035812;28;20045;-74
2021/06/03 06:41:20;;;;;;;10.70;7.53;;;22.30;84.50;;;;;;5036267;28;20393;-73
2021/06/03 06:43:45;;;;;;;11.25;6.65;;;22.00;84.60;;;;;;5036507;28;20429;-74
2021/06/03 06:46:11;;;;;;;7.60;5.50;;;22.00;84.30;;;;;;5036099;28;20037;-74
2021/06/03 06:48:37;;;;;;;8.68;5.55;;;22.00;85.00;;;;;;5035790;28;20049;-73
2021/06/03 06:51:04;;;;;;;7.55;5.90;;;21.90;85.10;;;;;;5035514;28;20064;-73
2021/06/03 06:53:30;;;;;;;6.82;5.43;;;22.30;85.30;;;;;;5036013;28;20136;-73
2021/06/03 06:55:55;;;;;;;10.73;5.57;;;22.50;83.80;;;;;;5035119;28;20454;-73
2021/06/03 06:58:21;;;;;;;6.85;4.35;;;22.80;83.10;;;;;;5036257;28;20112;-74
2021/06/03 07:00:48;;;;;;;7.90;5.60;;;23.00;83.40;;;;;;5035941;28;20347;-72
2021/06/03 07:03:15;;;;;;;6.15;5.10;;;23.30;82.50;;;;;;5035817;28;20042;-72
2021/06/03 07:05:42;;;;;;;7.35;5.03;;;23.90;80.60;;;;;;5035616;28;20405;-73
2021/06/03 07:08:08;;;;;;;9.13;5.55;;;24.20;81.70;;;;;;5035483;28;20481;-72
2021/06/03 07:10:34;;;;;;;7.82;5.53;;;24.50;81.10;;;;;;5035277;28;20116;-72
2021/06/03 07:13:00;;;;;;;10.25;5.13;;;24.50;79.50;;;;;;5035449;28;20047;-72
2021/06/03 07:15:26;;;;;;;10.05;5.80;;;24.10;79.80;;;;;;5034378;28;20045;-72
2021/06/03 07:17:54;;;;;;;6.10;5.50;;;24.00;80.00;;;;;;5035392;28;20072;-72
2021/06/03 07:20:20;;;;;;;6.45;5.85;;;23.90;79.50;;;;;;5033883;28;20038;-71
2021/06/03 07:22:48;;;;;;;15.15;6.07;;;23.70;81.40;;;;;;5035654;28;20041;-72
2021/06/03 07:25:15;;;;;;;7.57;5.53;;;23.40;82.00;;;;;;5035654;28;20037;-72
2021/06/03 07:27:41;;;;;;;7.32;5.70;;;23.30;82.60;;;;;;5035217;28;20533;-72
2021/06/03 07:30:10;;;;;;;10.32;5.68;;;23.20;83.20;;;;;;5034794;28;20044;-72
2021/06/03 07:32:43;;;;;;;8.90;6.10;;;23.20;83.30;;;;;;5035506;28;20052;-72
2021/06/03 07:35:12;;;;;;;6.50;5.90;;;23.30;83.60;;;;;;5035354;28;20034;-72
2021/06/03 07:37:45;;;;;;;9.80;6.28;;;23.30;82.80;;;;;;5035073;28;20038;-72
2021/06/03 07:40:12;;;;;;;;;;;23.30;84.40;;;;;;5035311;28;20518;-72
2021/06/03 07:42:39;;;;;;;9.43;7.00;;;23.20;84.50;;;;;;5035439;28;19935;-72
2021/06/03 07:45:08;;;;;;;8.35;6.47;;;22.90;83.00;;;;;;5035055;28;20037;-72
2021/06/03 07:47:34;;;;;;;8.20;6.70;;;23.10;84.30;;;;;;5035412;28;20503;-72
2021/06/03 07:50:02;;;;;;;10.20;7.32;;;23.00;84.50;;;;;;5034373;28;20038;-72
2021/06/03 07:52:28;;;;;;;9.57;6.78;;;22.80;83.40;;;;;;5034805;28;20038;-72
2021/06/03 07:54:54;;;;;;;8.85;6.47;;;22.90;83.60;;;;;;5034752;28;20452;-72
2021/06/03 07:57:20;;;;;;;10.70;7.30;;;22.80;84.20;;;;;;5034808;28;20426;-72
2021/06/03 07:59:45;;;;;;;10.27;7.43;;;22.90;85.10;;;;;;5034262;28;20504;-72
2021/06/03 08:02:12;;;;;;;7.65;6.95;;;23.10;85.00;;;;;;5035131;28;20044;-72
2021/06/03 08:04:38;;;;;;;12.68;6.68;;;23.30;85.00;;;;;;5034777;28;20048;-73
2021/06/03 08:07:04;;;;;;;6.35;5.75;;;23.50;84.70;;;;;;5034572;28;20042;-72
2021/06/03 08:09:30;;;;;;;9.02;6.70;;;23.60;84.50;;;;;;5034114;28;20045;-72
2021/06/03 08:11:56;;;;;;;8.32;6.90;;;23.70;84.40;;;;;;5033881;28;20478;-71
2021/06/03 08:14:21;;;;;;;8.90;7.38;;;23.70;85.20;;;;;;5035019;28;20076;-70
2021/06/03 08:17:07;;;;;;;7.53;6.72;;;23.70;85.50;;;;;;5033681;28;20110;-71
2021/06/03 08:19:33;;;;;;;9.88;7.15;;;23.60;85.60;;;;;;5032987;28;20041;-72
2021/06/03 08:22:02;;;;;;;10.38;7.32;;;23.60;85.50;;;;;;5034622;28;20041;-71
2021/06/03 08:24:30;;;;;;;9.07;7.22;;;23.70;85.60;;;;;;5034617;28;20037;-73
2021/06/03 08:26:56;;;;;;;12.25;7.43;;;23.80;85.30;;;;;;5034229;28;20393;-72
2021/06/03 08:29:22;;;;;;;6.88;6.18;;;24.10;84.60;;;;;;5033807;28;20490;-72
2021/06/03 08:31:49;;;;;;;8.30;6.70;;;24.60;83.50;;;;;;5034051;28;20049;-72
2021/06/03 08:34:35;;;;;;;9.45;6.53;;;24.80;82.60;;;;;;5033867;28;20054;-72
2021/06/03 08:37:21;;;;;;;9.95;7.20;;;25.00;82.40;;;;;;5033898;28;20053;-73
2021/06/03 08:39:49;;;;;;;10.48;7.97;;;25.10;81.70;;;;;;5033543;28;20038;-72
2021/06/03 08:42:15;;;;;;;9.00;7.35;;;25.00;80.90;;;;;;5033834;28;20072;-72
2021/06/03 08:44:41;;;;;;;8.75;6.70;;;25.10;79.80;;;;;;5033912;28;20135;-73
2021/06/03 08:47:08;;;;;;;9.50;6.03;;;25.60;80.30;;;;;;5033835;28;20421;-73
2021/06/03 08:49:35;;;;;;;8.18;6.38;;;25.80;80.30;;;;;;5033314;28;20044;-73
2021/06/03 08:52:03;;;;;;;9.57;7.15;;;26.00;79.90;;;;;;5033537;28;20042;-73
2021/06/03 08:54:34;;;;;;;8.63;6.18;;;26.10;78.40;;;;;;5033250;28;20065;-73
2021/06/03 08:57:01;;;;;;;11.77;7.50;;;26.30;76.30;;;;;;5033975;28;20043;-73
2021/06/03 08:59:28;;;;;;;7.78;6.85;;;26.10;76.00;;;;;;5033651;28;20064;-73
2021/06/03 09:01:53;;;;;;;9.80;7.68;;;25.80;75.90;;;;;;5033553;28;20041;-73
2021/06/03 09:04:19;;;;;;;12.60;8.65;;;25.80;76.50;;;;;;5033691;28;20107;-73
2021/06/03 09:06:45;;;;;;;10.52;8.18;;;26.00;76.00;;;;;;5033530;28;20041;-73
2021/06/03 09:09:12;;;;;;;8.73;7.80;;;26.00;76.00;;;;;;5033323;28;20044;-73
2021/06/03 09:11:38;;;;;;;9.23;7.88;;;25.90;75.10;;;;;;5033308;28;20037;-73
2021/06/03 09:14:10;;;;;;;9.30;8.32;;;26.10;75.00;;;;;;5034123;28;20527;-72
2021/06/03 09:16:38;;;;;;;11.95;8.18;;;25.90;74.90;;;;;;5033467;28;20046;-72
2021/06/03 09:19:08;;;;;;;10.38;8.02;;;26.20;76.00;;;;;;5033096;28;20037;-71
2021/06/03 09:21:50;;;;;;;11.77;8.27;;;26.60;74.50;;;;;;5033492;28;20046;-72
2021/06/03 09:24:18;;;;;;;9.65;8.65;;;27.00;73.90;;;;;;5033583;28;20083;-72
2021/06/03 09:27:00;;;;;;;11.50;9.23;;;27.10;73.80;;;;;;5034033;28;20067;-72
2021/06/03 09:29:27;;;;;;;10.02;8.40;;;27.20;72.90;;;;;;5033327;28;20041;-71
2021/06/03 09:32:08;;;;;;;10.63;8.65;;;27.50;73.00;;;;;;5033509;28;20041;-71
2021/06/03 09:34:34;;;;;;;15.30;8.93;;;27.90;71.90;;;;;;5032596;28;20042;-72
2021/06/03 09:37:02;;;;;;;10.10;8.65;;;28.10;73.40;;;;;;5033212;28;20104;-72
2021/06/03 09:39:32;;;;;;;12.25;8.82;;;28.20;71.60;;;;;;5032710;28;20041;-72
2021/06/03 09:42:20;;;;;;;12.20;9.80;;;28.20;71.70;;;;;;5033104;28;20041;-72
2021/06/03 09:44:55;;;;;;;13.57;8.90;;;28.60;69.10;;;;;;5029915;28;20041;-72
2021/06/03 09:47:23;;;;;;;9.05;7.88;;;28.60;70.30;;;;;;5013722;28;20076;-72
2021/06/03 09:49:52;;;;;;;11.57;9.35;;;28.60;71.00;;;;;;5012926;28;20041;-72
2021/06/03 09:52:22;;;;;;;9.95;8.85;;;28.50;69.30;;;;;;5013715;28;20050;-72
2021/06/03 09:54:55;;;;;;;11.35;7.57;;;28.40;71.30;;;;;;5013554;28;20029;-72
2021/06/03 09:57:27;;;;;;;11.82;8.93;;;28.50;70.30;;;;;;5013817;28;20153;-72
2021/06/03 10:00:04;;;;;;;9.00;7.75;;;28.40;69.60;;;;;;5013198;28;20069;-72
2021/06/03 10:02:33;;;;;;;10.75;8.48;;;28.30;70.70;;;;;;5013802;28;20442;-73
2021/06/03 10:04:59;;;;;;;10.60;9.40;;;28.40;72.20;;;;;;5012431;28;20385;-73
2021/06/03 10:07:29;;;;;;;11.68;9.05;;;28.20;71.90;;;;;;5013328;28;20122;-73
2021/06/03 10:09:57;;;;;;;9.73;8.82;;;28.30;70.90;;;;;;5020338;28;20038;-73
2021/06/03 10:12:22;;;;;;;12.98;9.68;;;28.10;70.90;;;;;;5012937;28;20046;-73
2021/06/03 10:14:57;;;;;;;11.30;7.78;;;28.40;71.30;;;;;;5013179;28;20048;-73
2021/06/03 10:17:27;;;;;;;10.27;7.95;;;28.50;71.80;;;;;;5013871;28;20042;-73
2021/06/03 10:19:59;;;;;;;10.10;6.95;;;28.50;70.20;;;;;;5012766;28;20038;-72
2021/06/03 10:22:32;;;;;;;10.98;7.88;;;28.70;70.00;;;;;;5013559;28;20108;-72
2021/06/03 10:25:03;;;;;;;9.75;7.30;;;28.60;68.40;;;;;;5013736;28;20159;-73
2021/06/03 10:27:36;;;;;;;8.85;6.32;;;28.60;69.60;;;;;;5013374;28;20433;-72
2021/06/03 10:30:10;;;;;;;10.82;7.20;;;28.50;70.00;;;;;;5012573;28;20034;-72
2021/06/03 10:32:36;;;;;;;10.18;7.90;;;28.60;68.70;;;;;;5016101;28;20049;-72
2021/06/03 10:35:07;;;;;;;9.55;7.57;;;28.40;71.10;;;;;;5016497;28;20397;-72
2021/06/03 10:37:33;;;;;;;10.45;9.45;;;28.40;70.90;;;;;;5016759;28;20038;-72
2021/06/03 10:39:59;;;;;;;10.75;8.02;;;28.30;70.00;;;;;;5015858;28;20044;-72
2021/06/03 10:42:25;;;;;;;10.18;7.60;;;28.30;69.80;;;;;;5031617;28;20048;-71
2021/06/03 10:44:51;;;;;;;10.20;7.57;;;28.40;71.20;;;;;;5016207;28;20440;-71
2021/06/03 10:47:18;;;;;;;8.27;7.15;;;28.40;71.90;;;;;;5016316;28;20033;-71
2021/06/03 10:49:44;;;;;;;7.50;6.80;;;28.50;69.50;;;;;;5014840;28;20041;-71
2021/06/03 10:52:13;;;;;;;10.60;7.53;;;28.50;69.00;;;;;;5016493;28;20041;-71
2021/06/03 10:54:42;;;;;;;10.63;7.70;;;28.60;70.40;;;;;;5016501;28;20037;-72
2021/06/03 10:57:08;;;;;;;9.43;7.97;;;28.50;71.30;;;;;;5016742;28;20069;-72
2021/06/03 10:59:36;;;;;;;5.80;4.95;;;28.20;72.70;;;;;;5016128;28;20042;-72
2021/06/03 11:02:07;;;;;;;5.28;4.75;;;28.40;70.80;;;;;;5016297;28;20049;-72
2021/06/03 11:04:34;;;;;;;6.03;5.22;;;28.60;70.50;;;;;;5016363;28;20119;-72
2021/06/03 11:07:01;;;;;;;7.43;4.70;;;28.60;69.60;;;;;;5016249;28;20034;-72
2021/06/03 11:09:34;;;;;;;7.28;4.80;;;28.50;69.70;;;;;;5016021;28;20045;-72
2021/06/03 11:12:09;;;;;;;8.25;5.00;;;28.50;69.80;;;;;;5016408;28;20482;-72
2021/06/03 11:15:03;;;;;;;6.55;4.68;;;28.50;70.60;;;;;;5014646;28;20085;-72
2021/06/03 11:17:48;;;;;;;9.18;5.05;;;28.40;69.70;;;;;;5016097;28;20044;-72
2021/06/03 11:20:14;;;;;;;5.80;4.65;;;28.50;70.40;;;;;;5015398;28;20037;-72
2021/06/03 11:22:40;;;;;;;9.38;5.32;;;28.20;70.70;;;;;;5015639;28;20137;-72
2021/06/03 11:25:06;;;;;;;6.88;4.50;;;28.20;70.60;;;;;;5015487;28;20041;-73
2021/06/03 11:27:43;;;;;;;7.78;3.80;;;28.30;70.70;;;;;;5015307;28;20398;-72
2021/06/03 11:30:13;;;;;;;6.65;4.00;;;28.50;69.40;;;;;;5015290;28;20410;-72
2021/06/03 11:32:42;;;;;;;6.07;4.30;;;28.50;70.30;;;;;;5015369;28;20042;-73
2021/06/03 11:35:11;;;;;;;8.40;4.35;;;28.00;69.80;;;;;;5015420;28;20080;-72
2021/06/03 11:37:39;;;;;;;8.60;4.35;;;27.80;69.80;;;;;;5015514;28;20061;-72
2021/06/03 11:40:04;;;;;;;7.18;4.50;;;27.80;72.00;;;;;;5014775;28;20045;-73
2021/06/03 11:42:41;;;;;;;6.03;4.05;;;27.60;71.50;;;;;;5015038;28;20041;-72
2021/06/03 11:45:29;;;;;;;6.45;4.13;;;27.60;71.90;;;;;;5015070;28;20081;-73
2021/06/03 11:47:59;;;;;;;4.93;3.92;;;27.40;73.30;;;;;;5015148;28;20065;-72
2021/06/03 11:50:24;;;;;;;5.90;4.30;;;27.30;73.00;;;;;;5030939;28;20034;-73
2021/06/03 11:52:56;;;;;;;4.70;4.20;;;27.10;74.60;;;;;;5035076;28;20120;-73
2021/06/03 11:55:30;;;;;;;5.18;3.85;;;27.00;72.60;;;;;;5035305;28;20425;-72
2021/06/03 11:58:19;;;;;;;5.20;4.07;;;27.10;72.50;;;;;;5034996;28;20462;-73
2021/06/03 12:00:49;;;;;;;5.90;4.13;;;27.10;73.90;;;;;;5034451;28;20064;-73
2021/06/03 12:03:33;;;;;;;5.03;4.53;;;27.10;73.40;;;;;;5034524;28;20489;-72
2021/06/03 12:06:10;;;;;;;3.90;3.35;;;27.10;72.70;;;;;;5034742;28;20038;-72
2021/06/03 12:08:45;;;;;;;4.93;4.05;;;27.20;73.60;;;;;;5034556;28;20045;-73
2021/06/03 12:11:18;;;;;;;5.90;3.90;;;27.10;72.20;;;;;;5034388;28;20508;-73
2021/06/03 12:13:48;;;;;;;5.03;3.85;;;27.10;73.10;;;;;;5034823;28;20033;-72
2021/06/03 12:16:14;;;;;;;8.38;4.82;;;27.20;75.10;;;;;;5034346;28;20045;-72
2021/06/03 12:18:44;;;;;;;6.38;4.63;;;27.20;75.20;;;;;;5033989;28;20045;-73
2021/06/03 12:21:12;;;;;;;5.63;3.92;;;27.20;74.60;;;;;;5034203;28;20037;-72
2021/06/03 12:23:46;;;;;;;6.38;4.28;;;27.40;74.90;;;;;;5034245;28;20041;-71
2021/06/03 12:26:24;;;;;;;6.13;4.60;;;27.30;73.70;;;;;;5034581;28;20061;-71
2021/06/03 12:28:51;;;;;;;4.88;3.92;;;27.40;74.70;;;;;;5034362;28;20114;-72
2021/06/03 12:31:25;;;;;;;5.82;3.90;;;27.50;73.60;;;;;;5034622;28;20489;-72
2021/06/03 12:33:52;;;;;;;6.05;4.00;;;27.50;71.90;;;;;;5034569;28;20369;-72
2021/06/03 12:36:18;;;;;;;6.47;4.78;;;27.50;71.90;;;;;;5034619;28;20045;-72
2021/06/03 12:38:51;;;;;;;7.80;4.97;;;27.50;72.20;;;;;;5033785;28;20406;-72
2021/06/03 12:41:22;;;;;;;7.15;5.07;;;27.60;70.60;;;;;;5034084;28;20043;-72
2021/06/03 12:44:00;;;;;;;7.63;5.25;;;27.70;72.10;;;;;;5033963;28;20037;-72
2021/06/03 12:46:40;;;;;;;7.32;4.35;;;27.60;71.20;;;;;;5033944;28;20404;-71
2021/06/03 12:49:09;;;;;;;6.20;4.35;;;27.70;71.20;;;;;;5033568;28;20481;-72